createdAt,value
2023-07-27T01:21:14.840Z,6.60
2023-07-27T01:24:00.643Z,6.40
2023-07-27T01:27:02.727Z,6.80
2023-07-27T01:30:07.303Z,6.50
2023-07-27T01:32:39.823Z,6.80
2023-07-27T01:35:14.195Z,6.50
2023-07-27T01:37:46.132Z,6.80
2023-07-27T01:40:18.354Z,7.20
2023-07-27T01:42:50.328Z,7.00
2023-07-27T01:45:22.477Z,6.80
2023-07-27T01:47:55.681Z,7.00
2023-07-27T01:50:27.696Z,7.70
2023-07-27T01:52:59.557Z,7.20
2023-07-27T01:55:31.784Z,6.90
2023-07-27T01:58:04.076Z,6.70
2023-07-27T02:00:36.117Z,7.20
2023-07-27T02:03:08.259Z,7.50
2023-07-27T02:05:40.596Z,6.80
2023-07-27T02:08:13.559Z,8.00
2023-07-27T02:10:45.707Z,6.90
2023-07-27T02:13:20.063Z,7.80
2023-07-27T02:15:53.830Z,9.00
2023-07-27T02:18:26.016Z,8.50
2023-07-27T02:20:58.009Z,7.70
2023-07-27T02:23:29.998Z,8.10
2023-07-27T02:26:02.373Z,8.00
2023-07-27T02:28:34.740Z,8.40
2023-07-27T02:31:07.059Z,7.70
2023-07-27T02:33:39.127Z,8.50
2023-07-27T02:36:11.311Z,8.40
2023-07-27T02:38:43.681Z,8.70
2023-07-27T02:41:15.787Z,9.20
2023-07-27T02:43:47.970Z,9.00
2023-07-27T02:46:20.090Z,9.60
2023-07-27T02:48:54.933Z,9.70
2023-07-27T02:51:27.116Z,9.00
2023-07-27T02:54:01.875Z,9.20
2023-07-27T02:56:36.270Z,8.70
2023-07-27T02:59:08.328Z,9.00
2023-07-27T03:01:45.309Z,10.10
2023-07-27T03:04:21.947Z,9.40
2023-07-27T03:06:54.283Z,9.20
2023-07-27T03:09:27.145Z,9.60
2023-07-27T03:11:59.202Z,9.70
2023-07-27T03:14:31.143Z,9.40
2023-07-27T03:17:03.453Z,9.70
2023-07-27T03:19:35.545Z,9.50
2023-07-27T03:22:08.187Z,9.00
2023-07-27T03:24:40.219Z,9.60
2023-07-27T03:27:12.372Z,9.30
2023-07-27T03:29:44.698Z,10.60
2023-07-27T03:32:16.900Z,10.40
2023-07-27T03:34:48.754Z,9.60
2023-07-27T03:37:22.282Z,9.70
2023-07-27T03:39:54.214Z,8.60
2023-07-27T03:42:27.388Z,9.40
2023-07-27T03:44:59.515Z,8.90
2023-07-27T03:47:31.657Z,9.40
2023-07-27T03:50:03.929Z,9.80
2023-07-27T03:52:36.069Z,9.50
2023-07-27T03:55:11.015Z,8.60
2023-07-27T03:57:43.373Z,9.60
2023-07-27T04:00:17.096Z,9.10
2023-07-27T04:02:52.536Z,9.60
2023-07-27T04:05:24.698Z,9.50
2023-07-27T04:07:57.011Z,9.50
2023-07-27T04:10:31.186Z,8.50
2023-07-27T04:13:03.672Z,10.00
2023-07-27T04:15:36.093Z,9.60
2023-07-27T04:18:08.294Z,8.50
2023-07-27T04:20:40.436Z,8.90
2023-07-27T04:23:12.401Z,10.10
2023-07-27T04:25:44.991Z,9.40
2023-07-27T04:28:17.046Z,9.80
2023-07-27T04:30:49.172Z,9.30
2023-07-27T04:33:21.198Z,9.50
2023-07-27T04:35:53.286Z,9.30
2023-07-27T04:38:25.288Z,9.80
2023-07-27T04:40:57.494Z,9.30
2023-07-27T04:43:29.471Z,9.60
2023-07-27T04:46:01.625Z,9.50
2023-07-27T04:48:33.805Z,8.80
2023-07-27T04:51:06.244Z,10.10
2023-07-27T04:53:38.162Z,10.60
2023-07-27T04:56:10.271Z,10.10
2023-07-27T04:58:42.256Z,8.40
2023-07-27T05:01:14.492Z,8.10
2023-07-27T05:03:46.973Z,8.80
2023-07-27T05:06:19.052Z,7.80
2023-07-27T05:08:51.143Z,9.00
2023-07-27T05:11:23.255Z,8.40
2023-07-27T05:13:55.475Z,8.80
2023-07-27T05:16:27.520Z,8.90
2023-07-27T05:19:00.070Z,8.00
2023-07-27T05:21:32.208Z,8.70
2023-07-27T05:24:04.461Z,8.00
2023-07-27T05:26:36.834Z,8.60
2023-07-27T05:29:09.434Z,7.50
2023-07-27T05:31:41.863Z,8.70
2023-07-27T05:34:14.212Z,8.10
2023-07-27T05:36:46.312Z,8.40
2023-07-27T05:39:18.205Z,8.30
2023-07-27T05:41:50.246Z,7.50
2023-07-27T05:44:23.222Z,8.00
2023-07-27T05:46:58.072Z,8.00
2023-07-27T05:49:30.146Z,7.40
2023-07-27T05:52:02.332Z,7.00
2023-07-27T05:54:34.488Z,6.30
2023-07-27T05:57:07.370Z,7.40
2023-07-27T05:59:43.795Z,7.70
2023-07-27T06:02:21.148Z,7.30
2023-07-27T06:04:53.394Z,7.30
2023-07-27T06:07:27.467Z,7.80
2023-07-27T06:09:59.453Z,7.00
2023-07-27T06:12:31.961Z,7.10
2023-07-27T06:15:03.949Z,6.80
2023-07-27T06:17:36.039Z,6.90
2023-07-27T06:20:10.606Z,7.00
2023-07-27T06:22:43.111Z,6.40
2023-07-27T06:25:15.523Z,6.50
2023-07-27T06:27:47.461Z,6.30
2023-07-27T06:30:20.273Z,7.90
2023-07-27T06:32:52.350Z,6.50
2023-07-27T06:35:25.052Z,6.10
2023-07-27T06:37:57.162Z,6.30
2023-07-27T06:40:29.294Z,6.50
2023-07-27T06:43:01.571Z,6.50
2023-07-27T06:45:35.681Z,5.80
2023-07-27T06:48:08.521Z,6.50
2023-07-27T06:50:41.923Z,6.70
2023-07-27T06:53:14.156Z,6.70
2023-07-27T06:55:48.243Z,6.40
2023-07-27T06:58:20.351Z,6.70
2023-07-27T07:00:52.598Z,7.50
2023-07-27T07:03:24.618Z,7.00
2023-07-27T07:05:57.725Z,7.50
2023-07-27T07:08:30.725Z,6.30
2023-07-27T07:11:02.834Z,7.30
2023-07-27T07:13:34.827Z,5.50
2023-07-27T07:16:07.735Z,6.60
2023-07-27T07:18:40.052Z,5.60
2023-07-27T07:21:13.127Z,5.90
2023-07-27T07:23:45.252Z,5.70
2023-07-27T07:26:17.941Z,5.80
2023-07-27T07:28:49.854Z,5.10
2023-07-27T07:31:21.919Z,5.70
2023-07-27T07:33:54.093Z,5.50
2023-07-27T07:36:27.080Z,5.50
2023-07-27T07:38:59.220Z,5.60
2023-07-27T07:41:31.365Z,5.50
2023-07-27T07:44:03.358Z,5.20
